Hazelwood, NC

6:06 AM EDT on March 30, 2015 (GMT -0400)
Auburn Park | | Change Station
CLOSE
Current Station
Personal Weather Station
Location: Waynesville, NC
Elevation: 2766 ft
Nearby Weather Stations

Elev 2766 ft 35.48 °N, 82.99 °W | Updated 5 seconds ago

Rain
Rain
41.1 °F
Feels Like 41 °F
N
1.0
Wind Variable Wind from WSW
Gusts 3.0 mph

Today
High -- | Low -- °F
--% Chance of Precip.
Yesterday
High -- | Low -- °F
Precip. -- in
7:21 AM 7:51 PM
Waxing Gibbous, 78% visible
Pressure 30.06 in
Visibility 7.0 miles
Clouds Scattered Clouds 4600 ft
Overcast 6000 ft
Windchill 41 °F
Dew Point 38 °F
Humidity 88%
Rainfall 0.29 in
Snow Depth Not available.
UV 0 out of 12
Pollen 8.30 out of 12
Air Quality Not available.
Flu Activity Not available.
METAR KAVL 300954Z AUTO 00000KT 7SM RA SCT046 OVC060 06/00 A3007 RMK AO2 LTG DSNT SW RAB01 SLP178 P0004 T00610000

More Conditions Fewer Conditions

Pressure 30.06 in
Visibility 7.0 miles
Clouds Scattered Clouds 4600 ft
Overcast 6000 ft
Windchill 41 °F
Dew Point 38 °F
Humidity 88%
Rainfall 0.29 in
Snow Depth Not available.
UV 0 out of 12
Pollen 8.30 out of 12
Air Quality Not available.
Flu Activity Not available.
METAR KAVL 300954Z AUTO 00000KT 7SM RA SCT046 OVC060 06/00 A3007 RMK AO2 LTG DSNT SW RAB01 SLP178 P0004 T00610000

More Conditions Fewer Conditions

10-Day Weather Forecast

Almanac

Astronomy

Mar. 30, 2015 Rise Set
Actual Time
Civil Twilight
Nautical Twilight
Astronomical Twilight
Moon
Length of Visible Light
Length of Day
Tomorrow will be .
, % of the Moon is Illuminated

Today's Extremes

State Highs State Lows

Community

WunderPhotos

Upload Photos

1,809,453 photos uploaded!

WunderBlogs® & News

Nearby

Air Quality

  Air Quality AQ Index Pollutant
Not available.

Snow Depth

Station Depth Elevation

Earthquake Activity

City Distance Mag. Time & Date
Minimum magnitude displayed is 2.5.

Coastal Water Temperatures

Place Temperature

Stations

Nearby Weather Stations

Station Location Temp. Windchill Dew Point Humidity Wind Precip. Elev Updated Type